createdAt,value
2018-04-01T05:24:48.026Z,20.77
2018-04-01T05:27:19.433Z,20.07
2018-04-01T05:29:51.580Z,19.00
2018-04-01T05:32:22.980Z,19.90
2018-04-01T05:34:54.356Z,19.47
2018-04-01T05:37:26.060Z,19.67
2018-04-01T05:39:57.443Z,17.13
2018-04-01T05:42:28.838Z,20.33
2018-04-01T05:45:00.996Z,19.93
2018-04-01T05:47:32.679Z,17.87
2018-04-01T05:50:04.059Z,20.63
2018-04-01T05:52:35.462Z,20.80
2018-04-01T05:55:07.605Z,20.27
2018-04-01T05:57:39.008Z,20.60
2018-04-01T06:00:10.392Z,20.53
2018-04-01T06:02:41.784Z,17.30
2018-04-01T06:05:13.931Z,18.63
2018-04-01T06:07:45.324Z,17.77
2018-04-01T06:10:16.707Z,19.13
2018-04-01T06:12:48.100Z,19.23
2018-04-01T06:15:19.548Z,19.03
2018-04-01T06:17:51.704Z,22.08
2018-04-01T06:20:23.847Z,26.07
2018-04-01T06:22:55.240Z,23.47
2018-04-01T06:25:26.886Z,23.57
2018-04-01T06:27:58.308Z,30.03
2018-04-01T06:30:29.991Z,22.70
2018-04-01T06:33:01.379Z,24.43
2018-04-01T06:35:32.768Z,19.97
2018-04-01T06:38:04.927Z,23.33
2018-04-01T06:40:36.311Z,24.53
2018-04-01T06:43:07.712Z,20.57
2018-04-01T06:45:39.093Z,23.13
2018-04-01T06:48:11.256Z,22.00
2018-04-01T06:50:43.448Z,18.13
2018-04-01T06:53:15.572Z,18.80
2018-04-01T06:55:46.960Z,13.60
2018-04-01T06:58:18.567Z,13.33
2018-04-01T07:00:50.255Z,11.23
2018-04-01T07:03:21.651Z,12.00
2018-04-01T07:05:53.044Z,9.77
2018-04-01T07:08:25.212Z,8.23
2018-04-01T07:10:57.365Z,8.53
2018-04-01T07:13:29.861Z,10.67
2018-04-01T07:16:01.241Z,7.70
2018-04-01T07:18:32.632Z,8.30
2018-04-01T07:21:04.015Z,7.53
2018-04-01T07:23:35.406Z,7.63
2018-04-01T07:26:07.547Z,5.90
2018-04-01T07:28:38.939Z,6.87
2018-04-01T07:31:10.320Z,7.67
2018-04-01T07:33:41.712Z,5.23
2018-04-01T07:36:13.352Z,6.97
2018-04-01T07:38:44.725Z,4.90
2018-04-01T07:41:16.328Z,4.83
2018-04-01T07:43:47.720Z,5.77
2018-04-01T07:46:19.099Z,5.87
2018-04-01T07:48:51.261Z,8.50
2018-04-01T07:51:22.868Z,8.27
2018-04-01T07:53:54.272Z,11.83
2018-04-01T07:56:26.420Z,10.43
2018-04-01T07:58:57.816Z,10.70
2018-04-01T08:01:29.211Z,14.47
2018-04-01T08:04:00.606Z,14.77
2018-04-01T08:06:31.992Z,14.90
2018-04-01T08:09:03.390Z,14.17
2018-04-01T08:11:35.540Z,15.47
2018-04-01T08:14:06.931Z,15.63
2018-04-01T08:16:38.315Z,18.17
2018-04-01T08:19:09.716Z,17.67
2018-04-01T08:21:41.099Z,20.17
2018-04-01T08:24:12.495Z,19.07
2018-04-01T08:26:44.878Z,20.50
2018-04-01T08:29:16.271Z,22.57
2018-04-01T08:31:47.656Z,21.50
2018-04-01T08:34:19.897Z,22.13
2018-04-01T08:36:51.236Z,22.37
2018-04-01T08:39:22.632Z,22.53
2018-04-01T08:41:54.780Z,23.73
2018-04-01T08:44:26.182Z,20.80
2018-04-01T08:46:57.559Z,24.07
2018-04-01T08:49:28.955Z,22.43
2018-04-01T08:52:00.342Z,24.67
2018-04-01T08:54:31.731Z,27.47
2018-04-01T08:57:04.121Z,23.70
2018-04-01T08:59:35.548Z,24.47
2018-04-01T09:02:06.903Z,26.17
2018-04-01T09:04:39.084Z,25.03
2018-04-01T09:07:11.231Z,29.03
2018-04-01T09:09:43.463Z,26.63
2018-04-01T09:12:14.838Z,29.20
2018-04-01T09:14:46.239Z,30.37
2018-04-01T09:17:17.625Z,30.13
2018-04-01T09:19:49.324Z,31.00
2018-04-01T09:22:20.923Z,34.20
2018-04-01T09:24:52.628Z,30.17
2018-04-01T09:27:24.020Z,28.57
2018-04-01T09:29:55.412Z,25.17
2018-04-01T09:32:27.568Z,22.50
2018-04-01T09:34:58.960Z,20.07
2018-04-01T09:37:30.595Z,19.13
2018-04-01T09:40:01.996Z,18.53
2018-04-01T09:42:33.379Z,19.23
2018-04-01T09:45:05.863Z,20.87
2018-04-01T09:47:37.248Z,21.10
2018-04-01T09:50:08.635Z,22.97
2018-04-01T09:52:40.022Z,20.87
2018-04-01T09:55:11.420Z,21.47
2018-04-01T09:57:42.805Z,20.70
2018-04-01T10:00:14.207Z,20.37
2018-04-01T10:02:46.088Z,19.50
2018-04-01T10:05:17.984Z,21.47
2018-04-01T10:07:49.847Z,21.47
2018-04-01T10:10:22.004Z,23.33
2018-04-01T10:12:54.167Z,22.50
2018-04-01T10:15:26.057Z,24.10
2018-04-01T10:17:57.919Z,25.37
2018-04-01T10:20:29.812Z,27.83
2018-04-01T10:23:01.694Z,25.43
2018-04-01T10:25:34.348Z,26.37
2018-04-01T10:28:06.224Z,26.77
2018-04-01T10:30:38.871Z,27.90
2018-04-01T10:33:10.752Z,28.17
2018-04-01T10:35:42.635Z,28.63
2018-04-01T10:38:15.270Z,29.37
2018-04-01T10:40:47.159Z,28.53
2018-04-01T10:43:19.065Z,36.90
2018-04-01T10:45:51.928Z,38.83
2018-04-01T10:48:23.795Z,31.93
2018-04-01T10:50:55.748Z,35.17
2018-04-01T10:53:28.633Z,32.80
2018-04-01T10:56:00.282Z,34.23
2018-04-01T10:58:31.668Z,29.73
2018-04-01T11:01:03.059Z,30.77
2018-04-01T11:03:35.207Z,27.40
2018-04-01T11:06:07.008Z,25.60
2018-04-01T11:08:38.427Z,24.13
2018-04-01T11:11:09.846Z,26.77
2018-04-01T11:13:41.224Z,20.30
2018-04-01T11:16:12.623Z,20.67
2018-04-01T11:18:44.002Z,20.77
2018-04-01T11:21:15.706Z,22.93
2018-04-01T11:23:47.088Z,21.23
2018-04-01T11:26:18.814Z,21.60
2018-04-01T11:28:50.191Z,23.07
2018-04-01T11:31:21.599Z,23.97
2018-04-01T11:33:53.744Z,22.27
2018-04-01T11:36:25.139Z,25.40
2018-04-01T11:38:56.524Z,23.90
2018-04-01T11:41:27.935Z,24.03
2018-04-01T11:43:59.319Z,28.80
2018-04-01T11:46:31.481Z,29.77
2018-04-01T11:49:02.859Z,28.43
2018-04-01T11:51:35.355Z,25.63
2018-04-01T11:54:06.739Z,27.53
2018-04-01T11:56:38.142Z,26.00
2018-04-01T11:59:10.292Z,27.53
2018-04-01T12:01:41.683Z,26.80
2018-04-01T12:04:13.067Z,31.33
2018-04-01T12:06:44.472Z,29.07
2018-04-01T12:09:16.983Z,28.47
2018-04-01T12:11:49.416Z,30.00
2018-04-01T12:14:20.800Z,28.10
2018-04-01T12:16:52.199Z,27.80
2018-04-01T12:19:24.348Z,30.83
2018-04-01T12:21:55.739Z,31.53
2018-04-01T12:24:27.127Z,30.87
2018-04-01T12:26:58.527Z,31.47
2018-04-01T12:29:29.907Z,30.40
2018-04-01T12:32:01.304Z,27.80
2018-04-01T12:34:33.693Z,28.50
2018-04-01T12:37:05.085Z,29.33
2018-04-01T12:39:36.463Z,31.33
2018-04-01T12:42:07.884Z,29.70
2018-04-01T12:44:39.271Z,30.17
2018-04-01T12:47:11.431Z,29.57
2018-04-01T12:49:43.584Z,30.90
2018-04-01T12:52:14.986Z,29.87
2018-04-01T12:54:46.371Z,32.67
2018-04-01T12:57:17.766Z,33.37
2018-04-01T12:59:49.143Z,35.30
2018-04-01T13:02:20.544Z,34.33
2018-04-01T13:04:52.688Z,33.30
2018-04-01T13:07:24.087Z,34.93
2018-04-01T13:09:55.462Z,39.93
2018-04-01T13:12:26.910Z,39.13
2018-04-01T13:14:58.321Z,33.83
2018-04-01T13:17:29.716Z,35.43
2018-04-01T13:20:01.105Z,34.73
2018-04-01T13:22:33.503Z,34.80
2018-04-01T13:25:04.884Z,37.13
2018-04-01T13:27:36.280Z,35.13
2018-04-01T13:30:08.664Z,33.90
2018-04-01T13:32:40.059Z,34.07
2018-04-01T13:35:11.814Z,34.10
2018-04-01T13:37:43.168Z,33.30
2018-04-01T13:40:14.551Z,32.80
2018-04-01T13:42:47.035Z,34.37
2018-04-01T13:45:18.691Z,32.73
2018-04-01T13:47:50.347Z,30.80
2018-04-01T13:50:22.050Z,32.13
2018-04-01T13:52:53.410Z,29.33
2018-04-01T13:55:24.788Z,29.97
2018-04-01T13:57:56.951Z,28.47
2018-04-01T14:00:29.346Z,28.03
2018-04-01T14:03:00.768Z,27.00
2018-04-01T14:05:32.919Z,28.50
2018-04-01T14:08:04.324Z,29.73
2018-04-01T14:10:35.712Z,34.27
2018-04-01T14:13:07.104Z,29.87
2018-04-01T14:15:38.484Z,31.73
2018-04-01T14:18:09.884Z,32.93
2018-04-01T14:20:42.032Z,30.43
2018-04-01T14:23:13.430Z,30.90
2018-04-01T14:25:44.812Z,31.30
2018-04-01T14:28:16.211Z,31.67
2018-04-01T14:30:47.592Z,32.40
2018-04-01T14:33:18.988Z,33.90
2018-04-01T14:35:51.131Z,36.77
2018-04-01T14:38:22.824Z,32.93
2018-04-01T14:40:54.208Z,38.40
2018-04-01T14:43:25.611Z,35.70
2018-04-01T14:45:57.015Z,42.17
2018-04-01T14:48:28.409Z,40.47
2018-04-01T14:51:00.555Z,44.80
2018-04-01T14:53:31.947Z,40.80
2018-04-01T14:56:03.364Z,41.67
2018-04-01T14:58:34.744Z,48.13
2018-04-01T15:01:06.132Z,42.50
2018-04-01T15:03:37.527Z,44.97
2018-04-01T15:06:08.912Z,39.03
2018-04-01T15:08:40.322Z,34.17
2018-04-01T15:11:12.468Z,30.93
2018-04-01T15:13:44.631Z,29.67
2018-04-01T15:16:16.011Z,23.77
2018-04-01T15:18:47.672Z,22.00
2018-04-01T15:21:19.047Z,16.37
2018-04-01T15:23:50.445Z,15.00
2018-04-01T15:26:21.835Z,13.73
2018-04-01T15:28:54.068Z,12.63
2018-04-01T15:31:26.219Z,11.97
2018-04-01T15:33:58.380Z,10.93
2018-04-01T15:36:29.760Z,13.10
2018-04-01T15:39:01.409Z,13.13
2018-04-01T15:41:32.787Z,12.63
2018-04-01T15:44:04.190Z,13.53
2018-04-01T15:46:36.575Z,14.50
2018-04-01T15:49:07.976Z,15.40
2018-04-01T15:51:39.373Z,15.93
2018-04-01T15:54:11.848Z,16.27
2018-04-01T15:56:43.232Z,17.77
2018-04-01T15:59:14.633Z,15.83
2018-04-01T16:01:46.775Z,16.40
2018-04-01T16:04:18.173Z,17.20
2018-04-01T16:06:49.551Z,17.23
2018-04-01T16:09:20.952Z,18.23
2018-04-01T16:11:53.095Z,19.50
2018-04-01T16:14:24.491Z,19.53
2018-04-01T16:16:56.100Z,18.23
2018-04-01T16:19:27.498Z,19.57
2018-04-01T16:21:59.135Z,20.23
2018-04-01T16:24:30.532Z,20.33
2018-04-01T16:27:01.915Z,21.33
2018-04-01T16:29:34.080Z,22.80
2018-04-01T16:32:06.228Z,23.10
2018-04-01T16:34:37.624Z,23.70
2018-04-01T16:37:09.027Z,23.30
2018-04-01T16:39:40.446Z,23.40
2018-04-01T16:42:11.828Z,25.00
2018-04-01T16:44:43.231Z,25.80
2018-04-01T16:47:14.620Z,24.17
2018-04-01T16:49:46.019Z,24.63
2018-04-01T16:52:17.403Z,24.30
2018-04-01T16:54:48.804Z,25.03
2018-04-01T16:57:20.188Z,24.47
2018-04-01T16:59:51.578Z,24.57
2018-04-01T17:02:23.745Z,25.77
2018-04-01T17:04:55.907Z,26.50
2018-04-01T17:07:28.056Z,27.40
2018-04-01T17:09:59.500Z,25.73
2018-04-01T17:12:30.885Z,26.50
2018-04-01T17:15:03.043Z,26.13
2018-04-01T17:17:35.196Z,34.83
2018-04-01T17:20:06.591Z,27.37
2018-04-01T17:22:37.976Z,29.70
2018-04-01T17:25:09.372Z,26.07
2018-04-01T17:27:40.979Z,25.77
2018-04-01T17:30:12.396Z,28.73
2018-04-01T17:32:43.776Z,29.50
2018-04-01T17:35:15.175Z,30.73
2018-04-01T17:37:46.555Z,27.90
2018-04-01T17:40:17.957Z,29.63
2018-04-01T17:42:50.102Z,27.93
2018-04-01T17:45:21.498Z,29.00
2018-04-01T17:47:52.939Z,32.03
2018-04-01T17:50:24.331Z,27.50
2018-04-01T17:52:55.711Z,30.00
2018-04-01T17:55:28.200Z,30.03
2018-04-01T17:57:59.579Z,30.33
2018-04-01T18:00:30.985Z,29.73
2018-04-01T18:03:03.123Z,33.40
2018-04-01T18:05:34.828Z,28.23
2018-04-01T18:08:06.211Z,30.87
2018-04-01T18:10:37.609Z,30.13
2018-04-01T18:13:09.991Z,31.37
2018-04-01T18:15:41.384Z,28.53
2018-04-01T18:18:12.768Z,32.17
2018-04-01T18:20:44.163Z,30.87
2018-04-01T18:23:15.556Z,30.63
2018-04-01T18:25:46.954Z,36.43
2018-04-01T18:28:18.332Z,32.63
2018-04-01T18:30:49.952Z,31.40
2018-04-01T18:33:21.331Z,32.30
2018-04-01T18:35:52.731Z,33.43
2018-04-01T18:38:24.385Z,34.30
2018-04-01T18:40:55.779Z,31.73
2018-04-01T18:43:27.163Z,30.17
2018-04-01T18:45:59.324Z,31.73
2018-04-01T18:48:31.476Z,33.63
2018-04-01T18:51:03.169Z,33.23
2018-04-01T18:53:34.556Z,30.60
2018-04-01T18:56:05.955Z,34.17
2018-04-01T18:58:38.104Z,37.10
2018-04-01T19:01:09.524Z,36.27
2018-04-01T19:03:40.904Z,38.67
2018-04-01T19:06:12.585Z,39.07
2018-04-01T19:08:43.965Z,36.63
2018-04-01T19:11:15.363Z,40.23
2018-04-01T19:13:47.523Z,36.93
2018-04-01T19:16:19.416Z,41.20
2018-04-01T19:18:51.292Z,39.47
2018-04-01T19:21:23.431Z,39.20
2018-04-01T19:23:55.308Z,39.00
2018-04-01T19:26:27.191Z,38.50
2018-04-01T19:28:59.069Z,46.00
2018-04-01T19:31:30.956Z,45.77
2018-04-01T19:34:03.599Z,40.80
2018-04-01T19:36:35.484Z,45.17
2018-04-01T19:39:07.359Z,45.97
2018-04-01T19:41:40.260Z,44.07
2018-04-01T19:44:12.419Z,46.10
2018-04-01T19:46:44.316Z,51.83
2018-04-01T19:49:16.447Z,79.37
2018-04-01T19:51:48.348Z,65.90
2018-04-01T19:54:20.227Z,68.77
2018-04-01T19:56:52.435Z,69.73
2018-04-01T19:59:24.303Z,70.17
2018-04-01T20:01:56.185Z,72.60
2018-04-01T20:04:28.095Z,76.10
2018-04-01T20:07:00.034Z,85.57
2018-04-01T20:09:32.143Z,83.73
2018-04-01T20:12:04.023Z,84.80
2018-04-01T20:14:36.168Z,93.10
2018-04-01T20:17:08.055Z,86.97
2018-04-01T20:19:39.943Z,92.20
2018-04-01T20:22:11.846Z,90.03
2018-04-01T20:24:44.505Z,89.63
2018-04-01T20:27:17.169Z,91.73
2018-04-01T20:29:49.050Z,89.40
2018-04-01T20:32:21.725Z,95.10
2018-04-01T20:34:53.596Z,94.43
2018-04-01T20:37:26.496Z,90.50
2018-04-01T20:39:58.360Z,93.53
2018-04-01T20:42:30.254Z,96.10
2018-04-01T20:45:02.135Z,93.70
2018-04-01T20:47:34.027Z,93.73
2018-04-01T20:50:05.940Z,92.93
2018-04-01T20:52:37.804Z,97.77
2018-04-01T20:55:09.672Z,88.70
2018-04-01T20:57:41.580Z,92.50
2018-04-01T21:00:13.472Z,96.00
2018-04-01T21:02:45.363Z,100.17
2018-04-01T21:05:18.007Z,107.57
2018-04-01T21:07:50.136Z,98.40
2018-04-01T21:10:22.035Z,106.73
2018-04-01T21:12:53.915Z,111.10
2018-04-01T21:15:25.784Z,107.67
2018-04-01T21:17:57.719Z,113.27
2018-04-01T21:20:29.613Z,106.17
2018-04-01T21:23:01.512Z,104.20
2018-04-01T21:25:34.081Z,114.07
2018-04-01T21:28:05.992Z,112.17
2018-04-01T21:30:37.880Z,118.30
2018-04-01T21:33:10.542Z,115.53
2018-04-01T21:35:43.223Z,120.00
2018-04-01T21:38:15.914Z,118.60
2018-04-01T21:40:47.815Z,125.13
2018-04-01T21:43:19.985Z,124.40
2018-04-01T21:45:51.855Z,131.47
2018-04-01T21:48:24.080Z,136.77
2018-04-01T21:50:55.952Z,142.40
2018-04-01T21:53:28.116Z,140.67
2018-04-01T21:55:59.988Z,142.53
2018-04-01T21:58:31.871Z,138.47
2018-04-01T22:01:03.749Z,146.27
2018-04-01T22:03:35.640Z,148.00
2018-04-01T22:06:07.519Z,149.33
2018-04-01T22:08:39.410Z,147.17
2018-04-01T22:11:11.531Z,165.10
2018-04-01T22:13:43.435Z,156.20
2018-04-01T22:16:15.311Z,160.30
2018-04-01T22:18:47.199Z,154.90
2018-04-01T22:21:19.883Z,150.87
2018-04-01T22:23:51.742Z,148.27
2018-04-01T22:26:24.637Z,154.97
2018-04-01T22:28:56.526Z,160.27
2018-04-01T22:31:28.399Z,143.97
2018-04-01T22:34:00.288Z,149.90
2018-04-01T22:36:32.163Z,152.43
2018-04-01T22:39:04.820Z,155.00
2018-04-01T22:41:36.692Z,156.10
2018-04-01T22:44:09.347Z,154.87
2018-04-01T22:46:41.223Z,155.03
2018-04-01T22:49:13.108Z,151.30
2018-04-01T22:51:44.980Z,155.73
2018-04-01T22:54:16.867Z,149.03
2018-04-01T22:56:48.996Z,155.20
2018-04-01T22:59:20.887Z,145.43
2018-04-01T23:01:52.755Z,155.17
2018-04-01T23:04:24.650Z,154.77
2018-04-01T23:06:56.515Z,164.07
2018-04-01T23:09:29.162Z,152.13
2018-04-01T23:12:01.048Z,150.70
2018-04-01T23:14:32.931Z,156.93
2018-04-01T23:17:05.122Z,154.43
2018-04-01T23:19:37.008Z,147.33
2018-04-01T23:22:08.877Z,165.27
2018-04-01T23:24:40.758Z,159.47
2018-04-01T23:27:13.668Z,146.50
2018-04-01T23:29:46.755Z,158.07
2018-04-01T23:32:18.627Z,146.73
2018-04-01T23:34:50.510Z,152.27
2018-04-01T23:37:22.383Z,152.80
2018-04-01T23:39:54.288Z,150.33
2018-04-01T23:42:26.970Z,141.33
2018-04-01T23:44:59.135Z,161.37
2018-04-01T23:47:31.008Z,162.17
2018-04-01T23:50:02.911Z,148.03
2018-04-01T23:52:34.775Z,153.03
2018-04-01T23:55:06.778Z,158.03
2018-04-01T23:57:38.656Z,160.43
